Time;durP1;ratioP1;P1;durP2;ratioP2;P2;SDS_P1;SDS_P2;PMS_P1;PMS_P2;Temp;Humidity;BMP_temperature;BMP_pressure;BME280_temperature;BME280_humidity;BME280_pressure;Samples;Min_cycle;Max_cycle;Signal;HPM_P1;HPM_P2
2022/09/23 00:01:01;;;;;;;32.33;11.60;;;;;;;39.76;37.32;101119.47;5094096;28;20468;-74
2022/09/23 00:03:29;;;;;;;18.60;12.30;;;;;;;39.99;36.79;101117.50;5094032;28;20543;-75
2022/09/23 00:06:06;;;;;;;25.30;11.73;;;;;;;40.13;36.46;101106.53;5095574;28;20421;-75
2022/09/23 00:08:33;;;;;;;20.87;11.00;;;;;;;40.36;36.46;101103.72;5094024;28;20413;-76
2022/09/23 00:11:07;;;;;;;30.03;11.70;;;;;;;40.43;36.07;101104.84;5095620;28;20392;-75
2022/09/23 00:13:35;;;;;;;17.83;10.23;;;;;;;40.31;35.98;101092.97;5093861;28;20919;-74
2022/09/23 00:16:06;;;;;;;28.70;13.17;;;;;;;39.80;36.70;101094.41;5093831;28;20408;-74
2022/09/23 00:18:32;;;;;;;33.37;13.17;;;;;;;40.13;36.04;101092.16;5095512;28;20397;-74
2022/09/23 00:21:07;;;;;;;32.27;11.43;;;;;;;39.99;36.61;101089.53;5093608;28;20453;-74
2022/09/23 00:23:33;;;;;;;25.77;11.80;;;;;;;40.14;36.14;101088.31;5093818;28;20495;-74
2022/09/23 00:26:01;;;;;;;32.90;11.93;;;;;;;40.21;36.28;101084.03;5095233;28;20459;-74
2022/09/23 00:28:27;;;;;;;20.37;11.60;;;;;;;40.23;36.03;101075.56;5093713;28;20437;-75
2022/09/23 00:30:53;;;;;;;20.73;10.80;;;;;;;40.40;35.91;101077.50;5093426;28;20433;-75
2022/09/23 00:33:19;;;;;;;37.63;12.63;;;;;;;40.25;36.28;101071.38;5095334;28;20472;-75
2022/09/23 00:35:46;;;;;;;19.70;11.00;;;;;;;40.33;36.20;101077.16;5093464;28;20470;-74
2022/09/23 00:38:13;;;;;;;22.20;12.33;;;;;;;39.84;36.97;101073.66;5093345;28;20206;-76
2022/09/23 00:40:46;;;;;;;23.10;10.73;;;;;;;40.15;36.13;101070.91;5093215;28;20495;-76
2022/09/23 00:43:13;;;;;;;25.40;12.77;;;;;;;40.16;36.56;101061.63;5093283;28;20470;-74
2022/09/23 00:45:44;;;;;;;21.43;12.00;;;;;;;39.85;37.16;101067.91;5093243;28;20429;-74
2022/09/23 00:48:15;;;;;;;36.43;11.70;;;;;;;39.76;37.27;101065.16;5093195;28;20477;-74
2022/09/23 00:50:47;;;;;;;28.00;12.63;;;;;;;40.05;36.71;101069.28;5094897;28;20390;-75
2022/09/23 00:53:18;;;;;;;18.20;10.00;;;;;;;39.79;37.02;101066.47;5093149;28;20441;-74
2022/09/23 00:55:55;;;;;;;24.13;11.10;;;;;;;39.84;37.06;101058.19;5093096;28;20408;-74
2022/09/23 00:58:25;;;;;;;34.27;11.57;;;;;;;39.82;36.66;101049.53;5092983;28;20412;-74
2022/09/23 01:00:53;;;;;;;21.60;11.20;;;;;;;39.63;37.35;101044.34;5092807;28;20468;-74
2022/09/23 01:03:19;;;;;;;31.80;12.33;;;;;;;39.58;37.47;101033.59;5091986;28;20466;-75
2022/09/23 01:05:46;;;;;;;30.57;13.77;;;;;;;39.74;37.65;101040.25;5092796;28;20452;-74
2022/09/23 01:08:14;;;;;;;25.63;11.13;;;;;;;39.78;37.19;101036.88;5092829;28;20872;-75
2022/09/23 01:11:04;;;;;;;20.10;11.20;;;;;;;39.64;37.37;101032.38;5092640;28;20437;-75
2022/09/23 01:14:06;;;;;;;30.33;12.20;;;;;;;39.70;37.47;101031.13;5094539;28;20442;-74
2022/09/23 01:16:53;;;;;;;26.27;10.80;;;;;;;39.64;37.38;101031.56;5090184;28;20462;-74
2022/09/23 01:19:41;;;;;;;19.83;9.83;;;;;;;39.53;37.25;101031.00;5093093;28;20405;-74
2022/09/23 01:22:14;;;;;;;16.90;10.70;;;;;;;39.53;37.34;101022.88;5092660;28;20566;-74
2022/09/23 01:24:45;;;;;;;18.73;10.50;;;;;;;39.68;37.36;101022.50;5092585;28;20786;-73
2022/09/23 01:27:32;;;;;;;19.73;10.73;;;;;;;39.60;36.91;101017.00;5092454;28;20405;-74
2022/09/23 01:30:04;;;;;;;18.67;9.60;;;;;;;39.82;37.02;101013.41;5092295;28;20414;-73
2022/09/23 01:32:41;;;;;;;22.87;11.27;;;;;;;39.79;36.86;101019.50;5092426;28;20424;-75
2022/09/23 01:35:36;;;;;;;15.90;10.20;;;;;;;39.76;36.83;101012.75;5092360;28;20405;-74
2022/09/23 01:38:29;;;;;;;28.60;10.50;;;;;;;39.90;37.05;101010.75;5092254;28;20463;-75
2022/09/23 01:41:24;;;;;;;23.83;11.00;;;;;;;39.96;36.90;101017.63;5092137;28;20464;-75
2022/09/23 01:44:04;;;;;;;29.70;13.90;;;;;;;39.88;37.09;101014.88;5084485;28;20446;-75
2022/09/23 01:47:20;;;;;;;25.03;12.27;;;;;;;39.84;37.11;101012.00;5092093;28;20455;-75
2022/09/23 01:50:00;;;;;;;22.50;13.97;;;;;;;40.05;36.63;101014.16;5051433;28;20430;-76
2022/09/23 01:52:38;;;;;;;25.50;12.67;;;;;;;39.93;36.53;101017.44;5091683;28;20954;-74
2022/09/23 01:55:12;;;;;;;22.63;12.10;;;;;;;39.79;36.61;101014.88;5093453;28;20413;-74
2022/09/23 01:57:47;;;;;;;32.70;12.27;;;;;;;39.88;36.90;101014.88;5091746;28;20949;-74
2022/09/23 02:00:16;;;;;;;20.33;10.33;;;;;;;40.00;36.42;101017.78;5091826;28;20467;-75
2022/09/23 02:02:48;;;;;;;21.07;11.00;;;;;;;39.97;36.80;101013.78;5093432;28;20389;-75
2022/09/23 02:05:27;;;;;;;27.33;10.80;;;;;;;39.86;36.47;101011.69;5093426;28;20381;-74
2022/09/23 02:07:58;;;;;;;28.73;10.80;;;;;;;39.48;37.30;101018.41;5091758;28;20408;-75
2022/09/23 02:10:46;;;;;;;21.20;11.90;;;;;;;39.56;37.29;101024.97;5091755;28;20428;-75
2022/09/23 02:13:23;;;;;;;18.03;10.50;;;;;;;39.72;36.93;101017.25;5093560;28;20759;-75
2022/09/23 02:15:54;;;;;;;28.27;11.40;;;;;;;39.84;37.14;101022.03;5091577;28;20433;-74
2022/09/23 02:18:56;;;;;;;21.50;10.70;;;;;;;39.93;36.91;101018.25;5091651;28;20409;-74
2022/09/23 02:21:28;;;;;;;22.03;12.30;;;;;;;39.83;36.62;101034.03;5084796;28;20470;-74
2022/09/23 02:24:04;;;;;;;24.90;11.17;;;;;;;39.90;36.57;101029.75;5091533;28;20448;-75
2022/09/23 02:26:46;;;;;;;17.13;9.90;;;;;;;39.95;36.49;101021.44;5091648;28;20415;-76
2022/09/23 02:29:17;;;;;;;40.67;17.00;;;;;;;39.82;36.81;101021.56;5091457;28;20436;-75
2022/09/23 02:32:11;;;;;;;24.10;13.13;;;;;;;39.94;36.57;101013.59;5091581;28;20405;-75
2022/09/23 02:35:05;;;;;;;21.23;12.10;;;;;;;40.17;36.05;101028.69;5068920;28;20417;-74
2022/09/23 02:37:47;;;;;;;26.27;11.20;;;;;;;39.69;36.96;101028.72;5091301;28;20394;-76
2022/09/23 02:40:22;;;;;;;36.23;16.37;;;;;;;39.39;37.85;101024.91;5100103;28;20470;-75
2022/09/23 02:43:13;;;;;;;23.97;12.20;;;;;;;39.42;37.87;101030.50;5094837;28;20495;-74
2022/09/23 02:45:39;;;;;;;22.83;10.43;;;;;;;39.31;37.60;101034.59;5094655;28;20477;-74
2022/09/23 02:48:21;;;;;;;19.53;10.63;;;;;;;39.79;36.35;101038.50;5094703;28;20421;-74
2022/09/23 02:50:47;;;;;;;23.43;12.60;;;;;;;39.97;36.58;101040.16;5094982;28;20913;-75
2022/09/23 02:53:16;;;;;;;24.83;11.30;;;;;;;39.80;36.81;101040.91;5094571;28;20462;-74
2022/09/23 02:55:42;;;;;;;14.50;8.77;;;;;;;39.96;36.49;101046.69;5094526;28;20415;-74
2022/09/23 02:58:12;;;;;;;30.43;13.00;;;;;;;39.79;36.68;101054.81;5094658;28;20993;-75
2022/09/23 03:01:09;;;;;;;29.90;11.63;;;;;;;39.92;36.43;101068.25;5094354;28;20463;-75
2022/09/23 03:04:05;;;;;;;33.73;14.27;;;;;;;39.97;36.92;101067.31;5094492;28;20412;-75
2022/09/23 03:06:57;;;;;;;18.47;11.23;;;;;;;39.90;36.75;101064.25;5094599;28;20427;-75
2022/09/23 03:09:47;;;;;;;24.40;13.13;;;;;;;39.95;36.53;101061.38;5056772;28;20772;-75
2022/09/23 03:12:46;;;;;;;31.23;11.70;;;;;;;39.78;36.79;101069.47;5081913;28;20416;-74
2022/09/23 03:15:34;;;;;;;25.27;9.50;;;;;;;39.54;37.01;101059.78;5094670;28;20439;-76
2022/09/23 03:18:07;;;;;;;31.13;11.07;;;;;;;39.80;36.34;101053.69;5094356;28;20497;-76
2022/09/23 03:20:48;;;;;;;18.70;10.30;;;;;;;39.76;36.96;101043.44;5094268;28;20985;-75
2022/09/23 03:23:16;;;;;;;21.27;10.87;;;;;;;39.55;36.90;101036.94;5094397;28;20418;-75
2022/09/23 03:25:47;;;;;;;23.27;10.40;;;;;;;39.66;36.61;101034.78;5094383;28;20408;-75
2022/09/23 03:28:16;;;;;;;17.33;10.87;;;;;;;39.75;36.75;101022.03;5115994;28;20442;-75
2022/09/23 03:30:42;;;;;;;19.37;10.27;;;;;;;39.80;36.40;101018.38;5098149;28;20404;-75
2022/09/23 03:33:12;;;;;;;21.50;13.53;;;;;;;39.20;37.65;101025.91;5097969;28;20503;-75
2022/09/23 03:38:36;;;;;;;23.50;12.60;;;;;;;39.72;36.72;101028.91;5116623;28;20431;-74
2022/09/23 03:41:04;;;;;;;21.97;10.37;;;;;;;39.72;36.64;101045.19;5094436;28;20479;-74
2022/09/23 03:43:31;;;;;;;22.80;13.27;;;;;;;39.56;37.46;101051.31;5094548;28;20416;-75
2022/09/23 03:45:58;;;;;;;22.43;12.63;;;;;;;39.76;37.19;101057.00;5094442;28;20916;-75
2022/09/23 03:48:24;;;;;;;22.50;12.30;;;;;;;39.83;37.08;101059.25;5094473;28;20930;-75
2022/09/23 03:50:50;;;;;;;34.47;13.40;;;;;;;39.79;36.80;101061.03;5094323;28;20783;-76
2022/09/23 03:53:19;;;;;;;22.33;10.93;;;;;;;39.53;37.17;101063.59;5095904;28;20523;-76
2022/09/23 03:55:46;;;;;;;19.10;10.00;;;;;;;39.23;37.76;101060.59;5094212;28;20466;-74
2022/09/23 03:58:12;;;;;;;30.00;12.57;;;;;;;39.25;37.92;101067.59;5094330;28;20503;-74
2022/09/23 04:00:38;;;;;;;25.00;9.97;;;;;;;39.50;37.36;101062.31;5093979;28;20456;-74
2022/09/23 04:03:04;;;;;;;28.47;11.33;;;;;;;39.65;37.26;101066.53;5095947;28;20397;-75
2022/09/23 04:05:30;;;;;;;18.83;11.57;;;;;;;39.82;36.74;101065.03;5094144;28;20417;-76
2022/09/23 04:07:56;;;;;;;23.60;11.70;;;;;;;39.76;37.27;101064.34;5093921;28;20486;-75
2022/09/23 04:10:22;;;;;;;24.83;9.60;;;;;;;40.00;36.73;101063.97;5094144;28;20420;-75
2022/09/23 04:12:48;;;;;;;20.33;12.47;;;;;;;39.90;36.65;101059.63;5083074;28;20719;-74
2022/09/23 04:15:14;;;;;;;29.33;15.90;;;;;;;39.92;36.57;101059.31;5073633;28;20290;-74
2022/09/23 04:17:40;;;;;;;26.77;12.20;;;;;;;39.80;36.70;101059.13;5073982;28;20641;-75
2022/09/23 04:20:06;;;;;;;30.90;11.43;;;;;;;39.97;36.56;101054.53;5073581;28;20204;-76
2022/09/23 04:22:33;;;;;;;19.87;11.00;;;;;;;39.96;36.68;101039.34;5073417;28;20414;-75
2022/09/23 04:24:59;;;;;;;19.83;9.37;;;;;;;39.74;36.87;101042.16;5073521;28;20443;-75
2022/09/23 04:27:25;;;;;;;26.40;11.63;;;;;;;39.69;37.13;101040.38;5073591;28;20410;-76
2022/09/23 04:29:51;;;;;;;18.93;10.70;;;;;;;39.66;37.09;101032.06;5073490;28;20417;-74
2022/09/23 04:32:17;;;;;;;31.53;15.33;;;;;;;39.83;37.03;101055.75;5073640;28;20437;-75
2022/09/23 04:34:43;;;;;;;35.83;12.43;;;;;;;39.86;36.51;101057.84;5073699;28;20183;-76
2022/09/23 04:37:09;;;;;;;25.73;11.73;;;;;;;39.68;37.11;101049.63;5073193;28;20641;-74
2022/09/23 04:39:35;;;;;;;21.77;11.33;;;;;;;39.74;37.12;101064.69;5075133;28;20599;-75
2022/09/23 04:42:02;;;;;;;27.47;12.07;;;;;;;39.81;37.09;101066.13;5076612;28;20861;-75
2022/09/23 04:44:28;;;;;;;26.17;11.90;;;;;;;39.85;37.01;101072.56;5076501;28;20444;-76
2022/09/23 04:46:54;;;;;;;21.83;10.67;;;;;;;39.63;37.50;101085.06;5076684;28;20445;-75
2022/09/23 04:49:20;;;;;;;24.80;12.00;;;;;;;39.63;37.45;101082.38;5076813;28;20525;-75
2022/09/23 04:51:46;;;;;;;23.60;11.63;;;;;;;39.57;37.30;101080.88;5076563;28;20178;-74
2022/09/23 04:54:13;;;;;;;27.80;11.37;;;;;;;39.63;37.22;101085.06;5076517;28;20205;-75
2022/09/23 04:56:39;;;;;;;30.00;11.17;;;;;;;39.76;36.83;101081.44;5087829;28;20420;-75
2022/09/23 04:59:06;;;;;;;38.97;12.90;;;;;;;39.71;36.71;101086.22;5096747;28;20412;-74
2022/09/23 05:01:34;;;;;;;24.13;11.40;;;;;;;39.68;37.11;101095.00;5080428;28;20572;-75
2022/09/23 05:04:08;;;;;;;41.50;12.00;;;;;;;39.75;37.15;101096.16;5115108;28;20389;-75
2022/09/23 05:06:35;;;;;;;61.50;13.80;;;;;;;39.63;36.91;101095.94;5096396;28;20466;-75
2022/09/23 05:09:03;;;;;;;36.93;13.40;;;;;;;39.65;37.24;101098.34;5096620;28;20416;-75
2022/09/23 05:11:30;;;;;;;24.70;12.17;;;;;;;39.59;37.45;101103.06;5096480;28;20408;-74
2022/09/23 05:14:27;;;;;;;25.30;11.70;;;;;;;39.13;37.96;101098.78;5096125;28;20573;-73
2022/09/23 05:16:53;;;;;;;21.07;13.07;;;;;;;39.56;37.62;101090.13;5095999;28;20396;-74
2022/09/23 05:19:19;;;;;;;34.43;13.03;;;;;;;39.57;37.10;101102.59;5096685;28;20411;-73
2022/09/23 05:21:45;;;;;;;21.80;13.77;;;;;;;39.91;36.80;101104.69;5095930;28;20866;-73
2022/09/23 05:24:11;;;;;;;23.70;13.73;;;;;;;39.88;36.86;101112.66;5096446;28;20424;-74
2022/09/23 05:26:37;;;;;;;22.80;15.70;;;;;;;39.99;36.66;101103.13;5091475;28;20464;-74
2022/09/23 05:29:03;;;;;;;26.43;13.47;;;;;;;39.88;36.76;101096.34;5085737;28;20425;-74
2022/09/23 05:31:30;;;;;;;29.83;12.87;;;;;;;40.08;36.57;101103.94;5084173;28;20454;-73
2022/09/23 05:33:59;;;;;;;24.47;12.70;;;;;;;40.17;36.47;101104.00;5086858;28;20408;-74
2022/09/23 05:36:27;;;;;;;31.33;12.83;;;;;;;40.26;35.87;101096.66;5086037;28;20408;-75
2022/09/23 05:38:56;;;;;;;30.37;16.10;;;;;;;40.30;35.98;101097.63;5102755;28;20408;-74
2022/09/23 05:41:23;;;;;;;24.77;13.80;;;;;;;40.13;36.03;101101.09;5110554;28;20460;-74
2022/09/23 05:43:54;;;;;;;25.03;12.67;;;;;;;40.24;36.08;101115.19;5095749;28;20951;-72
2022/09/23 05:46:23;;;;;;;24.63;13.50;;;;;;;39.99;36.32;101122.13;5095650;28;20415;-74
2022/09/23 05:48:49;;;;;;;26.30;12.80;;;;;;;39.96;36.28;101120.03;5095466;28;20469;-71
2022/09/23 05:51:20;;;;;;;14.20;10.70;;;;;;;39.57;37.12;101124.31;5095167;28;20405;-75
2022/09/23 05:53:47;;;;;;;24.53;12.30;;;;;;;40.03;36.30;101123.13;5110089;28;20432;-77
2022/09/23 05:56:16;;;;;;;26.63;13.30;;;;;;;40.15;36.26;101125.25;5095285;28;20416;-77
2022/09/23 05:58:42;;;;;;;22.10;13.53;;;;;;;40.10;36.41;101125.41;5095259;28;20412;-72
2022/09/23 06:01:20;;;;;;;22.23;13.23;;;;;;;40.02;36.56;101133.19;5095212;28;20451;-72
2022/09/23 06:03:50;;;;;;;18.93;11.30;;;;;;;39.78;36.90;101121.06;5095190;28;20498;-73
2022/09/23 06:06:20;;;;;;;33.03;15.77;;;;;;;39.88;36.89;101126.25;5089084;28;20862;-76
2022/09/23 06:08:46;;;;;;;23.03;12.93;;;;;;;39.77;36.92;101123.00;5074888;28;20482;-70
2022/09/23 06:11:13;;;;;;;18.60;12.70;;;;;;;39.83;36.69;101118.22;5077657;28;20435;-75
2022/09/23 06:13:40;;;;;;;22.90;11.30;;;;;;;40.05;36.47;101128.25;5078971;28;20412;-76
2022/09/23 06:16:09;;;;;;;26.57;12.20;;;;;;;40.04;36.13;101122.03;5086119;28;20411;-72
2022/09/23 06:18:38;;;;;;;23.00;9.67;;;;;;;40.12;36.32;101123.16;5095151;28;20419;-73
2022/09/23 06:21:04;;;;;;;22.73;12.27;;;;;;;40.15;36.32;101131.50;5094829;28;20447;-73
2022/09/23 06:23:31;;;;;;;23.60;12.57;;;;;;;40.07;36.40;101140.41;5094982;28;20432;-73
2022/09/23 06:26:02;;;;;;;23.73;13.50;;;;;;;40.14;36.48;101150.81;5090680;28;20804;-78
2022/09/23 06:28:33;;;;;;;25.87;13.60;;;;;;;40.35;36.04;101167.34;5085570;28;20441;-75
2022/09/23 06:31:02;;;;;;;19.30;12.13;;;;;;;40.22;36.35;101150.84;5105491;28;20403;-73
2022/09/23 06:33:29;;;;;;;22.20;15.50;;;;;;;40.19;36.03;101154.19;5113334;28;20479;-73
2022/09/23 06:35:56;;;;;;;31.03;15.20;;;;;;;40.34;36.12;101168.47;5094790;28;20432;-74
2022/09/23 06:38:23;;;;;;;17.23;11.27;;;;;;;40.16;36.13;101165.69;5075630;28;20509;-74
2022/09/23 06:40:54;;;;;;;32.37;13.10;;;;;;;40.06;36.34;101163.25;5078685;28;21071;-78
2022/09/23 06:43:21;;;;;;;20.27;13.17;;;;;;;40.39;35.65;101177.28;5108957;28;20545;-73
2022/09/23 06:46:02;;;;;;;24.27;12.70;;;;;;;40.35;35.91;101189.09;5094779;28;20496;-74
2022/09/23 06:48:29;;;;;;;30.67;15.33;;;;;;;39.88;36.66;101189.50;5090023;28;20415;-74
2022/09/23 06:51:03;;;;;;;28.90;13.73;;;;;;;40.39;35.68;101187.34;5111408;28;20395;-77
2022/09/23 06:53:31;;;;;;;23.53;13.43;;;;;;;40.15;36.00;101185.03;5084093;28;20410;-75
2022/09/23 06:56:10;;;;;;;34.00;20.77;;;;;;;40.52;36.10;101186.47;5094288;28;20404;-74
2022/09/23 06:58:38;;;;;;;32.57;20.40;;;;;;;40.75;35.22;101190.63;5123547;28;20403;-74
2022/09/23 07:01:11;;;;;;;38.20;26.67;;;;;;;40.53;35.77;101183.41;5092717;28;21024;-75
2022/09/23 07:03:38;;;;;;;47.93;26.97;;;;;;;40.78;35.69;101192.75;5097939;28;20926;-75
2022/09/23 07:06:06;;;;;;;40.23;29.30;;;;;;;40.87;35.21;101192.72;5088188;28;20473;-75
2022/09/23 07:08:34;;;;;;;34.67;23.43;;;;;;;40.82;35.30;101195.59;5078365;28;20436;-75
2022/09/23 07:11:04;;;;;;;35.53;24.63;;;;;;;40.86;35.16;101204.75;5082425;28;20781;-72
2022/09/23 07:13:35;;;;;;;32.93;21.50;;;;;;;40.82;35.57;101209.22;5087066;28;20487;-74
2022/09/23 07:16:02;;;;;;;32.00;21.63;;;;;;;40.37;36.24;101217.56;5088419;28;21038;-72
2022/09/23 07:18:36;;;;;;;29.47;21.40;;;;;;;40.67;35.73;101232.22;5086988;28;20511;-74
2022/09/23 07:21:08;;;;;;;30.73;20.10;;;;;;;40.93;35.53;101234.22;5087780;28;20797;-72
2022/09/23 07:23:34;;;;;;;31.63;22.17;;;;;;;41.10;35.24;101226.06;5088214;28;20440;-73
2022/09/23 07:26:00;;;;;;;31.80;25.07;;;;;;;41.20;34.94;101233.94;5085668;28;20419;-72
2022/09/23 07:28:27;;;;;;;36.50;23.03;;;;;;;41.25;34.80;101233.78;5098112;28;20971;-70
2022/09/23 07:30:55;;;;;;;32.33;23.57;;;;;;;41.40;34.63;101242.59;5098211;28;20428;-73
2022/09/23 07:33:21;;;;;;;34.73;23.37;;;;;;;41.16;34.88;101246.56;5116754;28;20414;-73
2022/09/23 07:35:47;;;;;;;28.33;18.40;;;;;;;41.05;35.14;101246.06;5081287;28;20428;-73
2022/09/23 07:38:13;;;;;;;27.87;19.23;;;;;;;41.20;34.79;101249.47;5098086;28;20444;-70
2022/09/23 07:40:39;;;;;;;23.73;16.90;;;;;;;41.18;34.79;101247.03;5097498;28;20497;-73
2022/09/23 07:43:06;;;;;;;33.20;19.70;;;;;;;41.10;35.13;101257.94;5098105;28;20446;-72
2022/09/23 07:45:33;;;;;;;30.53;18.40;;;;;;;41.04;35.05;101254.56;5096630;28;20531;-72
2022/09/23 07:48:00;;;;;;;40.03;16.57;;;;;;;41.16;34.66;101254.75;5096046;28;20416;-73
2022/09/23 07:50:26;;;;;;;35.17;18.50;;;;;;;41.23;34.93;101251.53;5114544;28;20444;-73
2022/09/23 07:52:52;;;;;;;29.90;17.77;;;;;;;41.54;34.58;101243.22;5095712;28;20435;-73
2022/09/23 07:55:19;;;;;;;34.80;17.47;;;;;;;41.44;34.50;101247.09;5095736;28;20832;-73
2022/09/23 07:57:45;;;;;;;36.83;15.83;;;;;;;41.72;34.03;101244.78;5095814;28;20820;-73
2022/09/23 08:00:12;;;;;;;24.47;14.40;;;;;;;41.65;34.29;101258.09;5096222;28;20448;-75
2022/09/23 08:02:41;;;;;;;31.70;15.67;;;;;;;41.42;34.19;101253.97;5097515;28;20426;-72
2022/09/23 08:05:08;;;;;;;27.57;12.50;;;;;;;41.21;34.67;101265.47;5097536;28;20430;-73
2022/09/23 08:07:34;;;;;;;23.80;15.80;;;;;;;41.19;34.86;101264.16;5097484;28;20408;-72
2022/09/23 08:10:01;;;;;;;27.57;14.63;;;;;;;41.24;35.00;101267.53;5097630;28;20440;-72
2022/09/23 08:12:28;;;;;;;27.97;12.00;;;;;;;40.85;35.12;101283.97;5115633;28;20424;-72
2022/09/23 08:14:55;;;;;;;18.60;13.13;;;;;;;41.15;34.85;101283.06;5097455;28;20432;-72
2022/09/23 08:17:21;;;;;;;26.50;12.13;;;;;;;41.32;34.58;101279.56;5097333;28;20457;-72
2022/09/23 08:19:47;;;;;;;21.23;12.60;;;;;;;41.51;34.68;101287.44;5115805;28;20392;-72
2022/09/23 08:22:14;;;;;;;21.47;11.57;;;;;;;41.49;34.56;101285.03;5097127;28;20472;-72
2022/09/23 08:24:40;;;;;;;18.40;9.77;;;;;;;40.57;35.76;101296.97;5097171;28;20408;-72
2022/09/23 08:27:07;;;;;;;21.27;15.27;;;;;;;40.66;36.00;101301.34;5097549;28;20404;-73
2022/09/23 08:29:33;;;;;;;26.50;13.60;;;;;;;40.40;35.83;101306.66;5115975;28;20427;-72
2022/09/23 08:31:59;;;;;;;28.83;11.43;;;;;;;40.75;36.11;101295.91;5115671;28;20483;-74
2022/09/23 08:34:27;;;;;;;27.20;17.77;;;;;;;40.78;35.66;101293.38;5096910;28;20914;-73
2022/09/23 08:36:53;;;;;;;33.33;20.20;;;;;;;40.88;35.11;101289.56;5096978;28;20790;-72
2022/09/23 08:39:20;;;;;;;21.40;13.53;;;;;;;40.77;36.17;101288.25;5116099;28;20420;-72
2022/09/23 08:42:16;;;;;;;29.63;13.60;;;;;;;41.24;35.19;101297.47;5096874;28;20468;-73
2022/09/23 08:44:56;;;;;;;23.27;11.47;;;;;;;41.42;34.86;101290.16;5116063;28;20986;-72
2022/09/23 08:47:27;;;;;;;24.37;11.30;;;;;;;41.17;35.69;101301.81;5096636;28;20494;-73
2022/09/23 08:50:06;;;;;;;23.50;11.77;;;;;;;41.02;35.56;101297.63;5115339;28;20487;-74
2022/09/23 08:52:49;;;;;;;22.17;10.67;;;;;;;41.10;35.49;101298.75;5096724;28;20419;-73
2022/09/23 08:55:16;;;;;;;22.17;9.97;;;;;;;41.54;34.13;101290.31;5096715;28;20419;-73
2022/09/23 08:58:18;;;;;;;18.20;8.83;;;;;;;41.50;34.49;101285.84;5096630;28;20415;-72
2022/09/23 09:00:54;;;;;;;16.60;10.17;;;;;;;41.47;34.85;101298.16;5096512;28;20467;-72
2022/09/23 09:03:25;;;;;;;35.57;10.40;;;;;;;41.63;34.49;101314.84;5114809;28;20419;-74
2022/09/23 09:05:53;;;;;;;15.57;8.20;;;;;;;41.25;35.08;101312.72;5096483;28;20419;-72
2022/09/23 09:08:30;;;;;;;14.57;8.33;;;;;;;41.23;34.65;101306.78;5079697;28;20796;-73
2022/09/23 09:10:57;;;;;;;22.13;11.57;;;;;;;41.33;35.21;101311.94;5096207;28;20411;-73
2022/09/23 09:13:32;;;;;;;25.70;10.83;;;;;;;41.25;35.13;101304.56;5115105;28;20475;-72
2022/09/23 09:16:04;;;;;;;20.13;9.67;;;;;;;41.38;35.33;101304.75;5079834;28;20458;-73
2022/09/23 09:18:33;;;;;;;15.80;10.33;;;;;;;41.44;35.11;101314.38;5096334;28;20499;-73
2022/09/23 09:21:08;;;;;;;22.30;10.27;;;;;;;41.81;34.46;101313.72;5096590;28;20456;-71
2022/09/23 09:23:47;;;;;;;17.23;8.80;;;;;;;41.50;34.55;101318.53;5096010;28;20504;-71
2022/09/23 09:26:23;;;;;;;22.30;8.60;;;;;;;41.85;34.32;101320.13;5063799;28;20411;-71
2022/09/23 09:29:14;;;;;;;24.93;8.67;;;;;;;41.90;34.47;101327.31;5096290;28;20463;-71
2022/09/23 09:31:48;;;;;;;18.80;10.80;;;;;;;41.76;34.07;101319.34;5114526;28;20385;-72
2022/09/23 09:34:28;;;;;;;30.13;10.67;;;;;;;41.93;33.77;101318.53;5095946;28;20469;-72
2022/09/23 09:37:10;;;;;;;27.13;9.87;;;;;;;41.61;34.85;101317.06;5095840;28;20412;-72
2022/09/23 09:39:36;;;;;;;14.30;10.07;;;;;;;42.02;33.81;101316.56;5095647;28;20412;-72
2022/09/23 09:42:04;;;;;;;14.47;9.30;;;;;;;41.76;34.12;101305.72;5113753;28;20471;-72
2022/09/23 09:45:14;;;;;;;15.30;9.73;;;;;;;41.75;33.98;101319.66;5095655;28;20411;-72
2022/09/23 09:48:09;;;;;;;28.43;10.20;;;;;;;41.96;34.05;101315.13;5073259;28;20955;-72
2022/09/23 09:50:48;;;;;;;17.33;9.27;;;;;;;42.04;33.99;101306.13;5081505;28;20404;-73
2022/09/23 09:53:34;;;;;;;15.27;8.13;;;;;;;41.53;34.26;101315.94;5078579;28;20505;-75
2022/09/23 09:56:00;;;;;;;16.73;8.40;;;;;;;41.12;35.06;101315.56;5113773;28;20450;-75
2022/09/23 09:58:46;;;;;;;16.77;8.13;;;;;;;41.16;34.90;101317.34;5114134;28;20438;-75
2022/09/23 10:01:21;;;;;;;16.13;8.83;;;;;;;41.42;34.34;101303.78;5095352;28;20513;-75
2022/09/23 10:03:49;;;;;;;20.13;11.43;;;;;;;41.63;34.29;101303.94;5095275;28;20415;-75
2022/09/23 10:06:17;;;;;;;12.63;8.23;;;;;;;41.66;33.53;101299.75;5095287;28;20450;-75
2022/09/23 10:09:01;;;;;;;17.50;10.27;;;;;;;41.75;33.78;101293.22;5095233;28;20436;-74
2022/09/23 10:11:28;;;;;;;17.20;7.80;;;;;;;41.93;34.29;101295.88;5095239;28;20837;-73
2022/09/23 10:14:25;;;;;;;28.63;10.10;;;;;;;41.96;34.01;101292.53;5095099;28;20412;-73
2022/09/23 10:17:04;;;;;;;14.73;7.30;;;;;;;41.75;33.72;101290.50;5092955;28;20422;-73
2022/09/23 10:19:31;;;;;;;21.57;9.00;;;;;;;42.00;33.49;101288.03;5095070;28;20404;-73
2022/09/23 10:22:03;;;;;;;18.90;9.57;;;;;;;41.90;33.91;101294.63;5094954;28;21036;-74
2022/09/23 10:24:33;;;;;;;12.53;8.10;;;;;;;41.57;34.07;101286.16;5094955;28;20423;-74
2022/09/23 10:27:10;;;;;;;11.37;7.53;;;;;;;41.62;33.71;101283.28;5095020;28;20816;-74
2022/09/23 10:29:47;;;;;;;18.63;9.37;;;;;;;41.88;33.66;101277.81;5094904;28;20914;-74
2022/09/23 10:32:32;;;;;;;17.20;10.70;;;;;;;41.96;33.74;101274.25;5113526;28;20432;-73
2022/09/23 10:35:12;;;;;;;19.70;10.33;;;;;;;41.72;33.98;101266.59;5094899;28;20507;-73
2022/09/23 10:37:47;;;;;;;13.10;8.00;;;;;;;41.53;33.66;101263.41;5094675;28;20446;-73
2022/09/23 10:46:40;;;;;;;25.07;9.30;;;;;;;42.19;33.21;101265.88;5092730;28;20388;-73
2022/09/23 10:49:10;;;;;;;33.70;11.00;;;;;;;42.23;33.69;101258.63;5091411;28;20428;-73
2022/09/23 10:51:54;;;;;;;22.23;9.80;;;;;;;42.50;32.38;101255.47;5091354;28;20405;-73
2022/09/23 10:54:50;;;;;;;11.30;7.47;;;;;;;42.26;32.95;101247.88;5091250;28;20404;-73
2022/09/23 10:57:42;;;;;;;21.30;10.63;;;;;;;42.10;33.36;101244.06;5091251;28;20405;-73
2022/09/23 11:00:26;;;;;;;25.00;8.53;;;;;;;42.07;33.02;101244.72;5087667;28;20526;-74
2022/09/23 11:03:16;;;;;;;16.43;9.47;;;;;;;41.92;33.30;101248.78;5091192;28;20980;-73
2022/09/23 11:06:10;;;;;;;18.83;8.30;;;;;;;42.00;32.92;101234.34;5091125;28;20413;-74
2022/09/23 11:08:55;;;;;;;23.63;10.30;;;;;;;41.97;33.41;101239.63;5091180;28;20500;-74
2022/09/23 11:11:47;;;;;;;15.53;9.83;;;;;;;42.34;32.65;101238.06;5091347;28;20450;-74
2022/09/23 11:14:33;;;;;;;16.60;8.73;;;;;;;42.11;32.79;101230.13;5091070;28;20502;-74
2022/09/23 11:17:20;;;;;;;17.20;11.80;;;;;;;42.22;33.00;101238.75;5091085;28;20416;-74
2022/09/23 11:19:53;;;;;;;18.57;9.23;;;;;;;42.09;32.89;101231.56;5090271;28;20452;-73
2022/09/23 11:22:44;;;;;;;13.03;8.60;;;;;;;42.07;32.60;101226.44;5091020;28;20484;-73
2022/09/23 11:25:37;;;;;;;12.83;7.80;;;;;;;42.42;32.37;101234.50;5091277;28;20437;-75
2022/09/23 11:28:22;;;;;;;17.67;10.67;;;;;;;42.19;33.05;101225.00;5090922;28;20444;-75
2022/09/23 11:31:26;;;;;;;15.37;8.20;;;;;;;42.40;32.52;101226.63;5091005;28;20424;-75
2022/09/23 11:34:34;;;;;;;15.27;10.47;;;;;;;42.34;32.64;101225.22;5090972;28;20436;-74
2022/09/23 11:37:19;;;;;;;17.47;9.63;;;;;;;42.47;32.44;101215.22;5092667;28;20384;-74
2022/09/23 11:39:55;;;;;;;15.73;8.50;;;;;;;42.24;32.84;101212.00;5091248;28;20922;-77
2022/09/23 11:42:26;;;;;;;23.07;9.50;;;;;;;42.23;32.47;101209.56;5094203;28;20526;-73
2022/09/23 11:45:00;;;;;;;17.80;9.80;;;;;;;42.35;32.17;101202.28;5094066;28;20419;-71
2022/09/23 11:47:35;;;;;;;12.83;7.67;;;;;;;41.85;32.83;101197.50;5094460;28;20407;-71
2022/09/23 11:50:24;;;;;;;23.73;8.27;;;;;;;42.11;33.01;101196.59;5116439;28;20869;-71